Time;durP1;ratioP1;P1;durP2;ratioP2;P2;SDS_P1;SDS_P2;PMS_P1;PMS_P2;Temp;Humidity;BMP_temperature;BMP_pressure;BME280_temperature;BME280_humidity;BME280_pressure;Samples;Min_cycle;Max_cycle;Signal;HPM_P1;HPM_P2
2023/04/17 00:02:01;;;;;;;;;;;;;;;12.36;55.79;97098.44;4186336;28;5720;-78
2023/04/17 00:04:04;;;;;;;;;;;;;;;12.37;55.44;97093.94;4176085;28;6101;-76
2023/04/17 00:06:07;;;;;;;;;;;;;;;12.34;55.32;97100.44;4177869;28;5737;-77
2023/04/17 00:08:10;;;;;;;;;;;;;;;12.33;55.87;97103.28;4179029;28;5737;-77
2023/04/17 00:10:13;;;;;;;;;;;;;;;12.32;55.80;97101.66;4174232;28;5787;-77
2023/04/17 00:12:17;;;;;;;;;;;;;;;12.29;55.51;97099.41;4184495;28;5708;-75
2023/04/17 00:14:20;;;;;;;;;;;;;;;12.27;55.74;97086.34;4177649;28;5745;-76
2023/04/17 00:16:23;;;;;;;;;;;;;;;12.26;55.92;97073.28;4175319;28;5811;-76
2023/04/17 00:18:26;;;;;;;;;;;;;;;12.20;55.91;97083.66;4180710;28;5861;-76
2023/04/17 00:20:29;;;;;;;;;;;;;;;12.13;55.69;97082.81;4184251;28;6664;-76
2023/04/17 00:22:32;;;;;;;;;;;;;;;12.11;56.19;97068.91;4171653;28;5785;-76
2023/04/17 00:24:35;;;;;;;;;;;;;;;12.14;56.04;97073.84;4185338;28;5720;-75
2023/04/17 00:26:38;;;;;;;;;;;;;;;12.16;56.00;97074.47;4178927;28;5844;-75
2023/04/17 00:28:42;;;;;;;;;;;;;;;12.20;55.88;97082.84;4180378;28;5717;-75
2023/04/17 00:30:45;;;;;;;;;;;;;;;12.20;56.17;97072.22;4177588;28;6708;-75
2023/04/17 00:32:48;;;;;;;;;;;;;;;12.22;55.86;97070.19;4176369;28;6962;-75
2023/04/17 00:34:51;;;;;;;;;;;;;;;12.22;55.90;97064.91;4179829;28;5708;-75
2023/04/17 00:36:58;;;;;;;;;;;;;;;12.24;55.79;97068.19;4185727;28;5708;-75
2023/04/17 00:39:00;;;;;;;;;;;;;;;12.24;56.14;97063.72;4182940;28;5732;-75
2023/04/17 00:41:03;;;;;;;;;;;;;;;12.23;56.06;97059.41;4185781;28;5716;-75
2023/04/17 00:43:06;;;;;;;;;;;;;;;12.21;56.12;97066.72;4175013;28;5745;-75
2023/04/17 00:45:11;;;;;;;;;;;;;;;12.17;56.02;97057.53;4181564;28;6540;-75
2023/04/17 00:47:14;;;;;;;;;;;;;;;12.18;56.20;97058.34;4185968;28;5860;-76
2023/04/17 00:49:17;;;;;;;;;;;;;;;12.19;55.99;97050.22;4180458;28;5646;-75
2023/04/17 00:51:20;;;;;;;;;;;;;;;12.20;55.84;97056.31;4170646;28;5846;-76
2023/04/17 00:53:23;;;;;;;;;;;;;;;12.17;56.29;97046.94;4169549;28;5841;-76
2023/04/17 00:55:27;;;;;;;;;;;;;;;12.19;55.96;97050.22;4183136;28;5740;-74
2023/04/17 00:57:30;;;;;;;;;;;;;;;12.18;56.10;97045.94;4179409;28;5730;-76
2023/04/17 00:59:34;;;;;;;;;;;;;;;12.20;56.23;97045.72;4178273;28;5743;-75
2023/04/17 01:01:38;;;;;;;;;;;;;;;12.19;56.11;97047.56;4170126;28;5741;-74
2023/04/17 01:03:41;;;;;;;;;;;;;;;12.19;55.97;97050.22;4177467;28;5746;-75
2023/04/17 01:05:47;;;;;;;;;;;;;;;12.19;56.30;97058.16;4177768;28;5062;-75
2023/04/17 01:07:50;;;;;;;;;;;;;;;12.21;56.37;97048.19;4184017;28;7695;-74
2023/04/17 01:09:53;;;;;;;;;;;;;;;12.23;56.43;97051.47;4178632;28;5724;-75
2023/04/17 01:12:18;;;;;;;;;;;;;;;12.26;56.41;97044.13;4183097;28;5737;-75
2023/04/17 01:14:21;;;;;;;;;;;;;;;12.26;56.03;97046.78;4172859;28;6400;-74
2023/04/17 01:16:24;;;;;;;;;;;;;;;12.24;56.29;97058.41;4178340;28;5744;-74
2023/04/17 01:18:28;;;;;;;;;;;;;;;12.23;56.19;97046.16;4181373;28;5732;-75
2023/04/17 01:20:31;;;;;;;;;;;;;;;12.24;56.19;97058.41;4174132;28;5753;-75
2023/04/17 01:22:34;;;;;;;;;;;;;;;12.26;56.33;97044.13;4175828;28;5716;-75
2023/04/17 01:24:39;;;;;;;;;;;;;;;12.24;56.50;97045.16;4172456;28;5819;-75
2023/04/17 01:26:42;;;;;;;;;;;;;;;12.24;56.22;97042.50;4174855;28;5105;-74
2023/04/17 01:28:50;;;;;;;;;;;;;;;12.24;56.33;97049.63;4176512;28;6439;-74
2023/04/17 01:30:53;;;;;;;;;;;;;;;12.21;56.46;97039.41;4182147;28;5779;-75
2023/04/17 01:32:56;;;;;;;;;;;;;;;12.19;56.25;97039.59;4184499;28;5816;-74
2023/04/17 01:34:59;;;;;;;;;;;;;;;12.17;56.26;97041.63;4183054;28;5818;-74
2023/04/17 01:37:02;;;;;;;;;;;;;;;12.15;56.14;97048.97;4200243;28;6321;-75
2023/04/17 01:39:04;;;;;;;;;;;;;;;12.13;56.46;97050.19;4199478;28;5707;-75
2023/04/17 01:41:09;;;;;;;;;;;;;;;12.14;56.48;97055.28;4201040;28;5714;-75
2023/04/17 01:43:12;;;;;;;;;;;;;;;12.15;56.31;97061.41;4198277;28;5751;-77
2023/04/17 01:45:15;;;;;;;;;;;;;;;12.16;56.49;97055.91;4197973;28;6668;-77
2023/04/17 01:47:17;;;;;;;;;;;;;;;12.15;56.53;97058.75;4199670;28;5093;-77
2023/04/17 01:49:21;;;;;;;;;;;;;;;12.15;56.31;97058.75;4200746;28;5631;-74
2023/04/17 01:51:23;;;;;;;;;;;;;;;12.14;56.24;97057.94;4199039;28;5886;-75
2023/04/17 01:53:26;;;;;;;;;;;;;;;12.15;56.54;97064.06;4198548;28;5847;-75
2023/04/17 01:55:29;;;;;;;;;;;;;;;12.14;56.15;97060.59;4200664;28;6468;-75
2023/04/17 01:57:34;;;;;;;;;;;;;;;12.14;56.33;97057.94;4197911;28;5627;-74
2023/04/17 01:59:37;;;;;;;;;;;;;;;12.13;56.03;97050.19;4194896;28;5624;-76
2023/04/17 02:01:40;;;;;;;;;;;;;;;12.13;55.98;97058.97;4200681;28;5652;-75
2023/04/17 02:03:43;;;;;;;;;;;;;;;12.14;56.17;97052.66;4183935;28;5800;-75
2023/04/17 02:05:46;;;;;;;;;;;;;;;12.13;56.47;97061.63;4200328;28;5623;-74
2023/04/17 02:07:49;;;;;;;;;;;;;;;12.10;56.46;97059.34;4201068;28;6314;-75
2023/04/17 02:09:52;;;;;;;;;;;;;;;12.11;56.37;97058.31;4199353;28;5632;-75
2023/04/17 02:11:55;;;;;;;;;;;;;;;12.10;56.25;97050.56;4194062;28;5643;-75
2023/04/17 02:14:00;;;;;;;;;;;;;;;12.09;56.14;97062.19;4199785;28;5627;-75
2023/04/17 02:16:03;;;;;;;;;;;;;;;12.09;56.37;97065.66;4196571;28;5755;-75
2023/04/17 02:18:06;;;;;;;;;;;;;;;12.08;56.31;97058.72;4196077;28;5635;-75
2023/04/17 02:20:10;;;;;;;;;;;;;;;12.07;56.20;97051.78;4200546;28;5623;-75
2023/04/17 02:22:13;;;;;;;;;;;;;;;12.05;56.11;97056.47;4199567;28;5808;-76
2023/04/17 02:24:16;;;;;;;;;;;;;;;12.03;56.21;97057.69;4199014;28;5730;-75
2023/04/17 02:26:19;;;;;;;;;;;;;;;12.04;56.32;97056.66;4200533;28;5632;-75
2023/04/17 02:28:22;;;;;;;;;;;;;;;12.04;56.26;97054.00;4200197;28;5674;-75
2023/04/17 02:30:27;;;;;;;;;;;;;;;12.06;56.18;97059.94;4203119;28;5995;-75
2023/04/17 02:32:29;;;;;;;;;;;;;;;12.06;55.87;97067.88;4203927;28;6444;-75
2023/04/17 02:34:32;;;;;;;;;;;;;;;12.07;55.94;97070.34;4203943;28;5615;-75
2023/04/17 02:36:35;;;;;;;;;;;;;;;12.04;56.20;97069.91;4203718;28;5616;-75
2023/04/17 02:38:38;;;;;;;;;;;;;;;12.01;56.02;97063.19;4203765;28;5631;-75
2023/04/17 02:40:41;;;;;;;;;;;;;;;11.98;56.40;97066.19;4201019;28;5766;-75
2023/04/17 02:42:44;;;;;;;;;;;;;;;11.95;56.23;97069.25;4202612;28;5688;-75
2023/04/17 02:44:47;;;;;;;;;;;;;;;11.96;55.98;97065.56;4204632;28;5822;-75
2023/04/17 02:46:51;;;;;;;;;;;;;;;11.98;56.19;97062.72;4201102;28;5755;-74
2023/04/17 02:48:54;;;;;;;;;;;;;;;11.99;56.25;97059.06;4196579;28;5616;-75
2023/04/17 02:50:57;;;;;;;;;;;;;;;11.97;56.42;97055.78;4188585;28;5646;-74
2023/04/17 02:53:00;;;;;;;;;;;;;;;11.93;56.34;97058.03;4204325;28;5702;-75
2023/04/17 02:55:03;;;;;;;;;;;;;;;11.90;56.47;97051.28;4194993;28;5632;-74
2023/04/17 02:57:07;;;;;;;;;;;;;;;11.90;56.39;97051.28;4201574;28;5774;-75
2023/04/17 02:59:10;;;;;;;;;;;;;;;11.88;56.32;97053.28;4200812;28;5647;-76
2023/04/17 03:01:13;;;;;;;;;;;;;;;11.85;56.53;97053.69;4203041;28;5837;-74
2023/04/17 03:03:18;;;;;;;;;;;;;;;11.85;56.66;97064.28;4199681;28;5756;-74
2023/04/17 03:05:22;;;;;;;;;;;;;;;11.85;56.57;97044.94;4199268;28;5659;-75
2023/04/17 03:07:26;;;;;;;;;;;;;;;11.86;56.69;97057.16;4200347;28;6325;-75
2023/04/17 03:09:29;;;;;;;;;;;;;;;11.88;56.49;97052.47;4197484;28;5758;-76
2023/04/17 03:11:32;;;;;;;;;;;;;;;11.87;56.64;97056.16;4202010;28;5627;-75
2023/04/17 03:13:36;;;;;;;;;;;;;;;11.88;56.41;97050.66;4203395;28;5651;-74
2023/04/17 03:15:39;;;;;;;;;;;;;;;11.88;56.73;97047.19;4200123;28;5850;-76
2023/04/17 03:17:42;;;;;;;;;;;;;;;11.86;56.76;97039.44;4201375;28;5833;-73
2023/04/17 03:19:46;;;;;;;;;;;;;;;11.85;56.51;97045.75;4204397;28;5649;-75
2023/04/17 03:21:49;;;;;;;;;;;;;;;11.86;56.74;97041.25;4202773;28;5741;-75
2023/04/17 03:23:52;;;;;;;;;;;;;;;11.84;56.27;97036.16;4182134;28;5681;-76
2023/04/17 03:25:55;;;;;;;;;;;;;;;11.84;56.67;97040.66;4182621;28;5669;-76
2023/04/17 03:27:58;;;;;;;;;;;;;;;11.83;56.64;97039.81;4197226;28;5773;-82
2023/04/17 03:30:01;;;;;;;;;;;;;;;11.84;56.63;97035.34;4195403;28;6467;-77
2023/04/17 03:32:05;;;;;;;;;;;;;;;11.84;56.83;97035.34;4202994;28;5790;-76
2023/04/17 03:34:08;;;;;;;;;;;;;;;11.83;56.65;97039.00;4203406;28;5718;-76
2023/04/17 03:36:12;;;;;;;;;;;;;;;11.81;56.56;97038.41;4194300;28;5611;-76
2023/04/17 03:38:15;;;;;;;;;;;;;;;11.81;56.65;97041.03;4197922;28;5662;-76
2023/04/17 03:40:18;;;;;;;;;;;;;;;11.82;56.75;97037.38;4200492;28;5744;-76
2023/04/17 03:42:21;;;;;;;;;;;;;;;11.83;56.82;97039.00;4201584;28;6446;-75
2023/04/17 03:44:24;;;;;;;;;;;;;;;11.82;56.68;97034.72;4198054;28;5671;-74
2023/04/17 03:46:27;;;;;;;;;;;;;;;11.82;56.51;97040.03;4200563;28;5664;-74
2023/04/17 03:48:30;;;;;;;;;;;;;;;11.82;56.94;97040.84;4203337;28;5821;-74
2023/04/17 03:50:33;;;;;;;;;;;;;;;11.82;56.48;97040.84;4201856;28;5636;-76
2023/04/17 03:52:37;;;;;;;;;;;;;;;11.79;56.73;97038.59;4194215;28;5154;-76
2023/04/17 03:54:41;;;;;;;;;;;;;;;11.79;56.92;97035.94;4198755;28;7696;-76
2023/04/17 03:56:44;;;;;;;;;;;;;;;11.78;56.93;97039.56;4191086;28;5647;-74
2023/04/17 03:58:46;;;;;;;;;;;;;;;11.78;56.87;97042.22;4199811;28;5831;-75
2023/04/17 04:00:54;;;;;;;;;;;;;;;11.76;56.84;97030.16;4192974;28;5781;-75
2023/04/17 04:02:57;;;;;;;;;;;;;;;11.76;57.24;97030.16;4197883;28;5632;-75
2023/04/17 04:05:00;;;;;;;;;;;;;;;11.78;57.20;97034.28;4202310;28;5635;-76
2023/04/17 04:07:03;;;;;;;;;;;;;;;11.78;57.11;97038.72;4198123;28;5635;-76
2023/04/17 04:09:07;;;;;;;;;;;;;;;11.75;57.13;97039.94;4197904;28;5636;-73
2023/04/17 04:11:10;;;;;;;;;;;;;;;11.75;57.31;97032.00;4188848;28;5634;-75
2023/04/17 04:13:13;;;;;;;;;;;;;;;11.75;57.09;97036.47;4198624;28;5363;-74
2023/04/17 04:15:15;;;;;;;;;;;;;;;11.75;57.03;97036.47;4194519;28;7371;-75
2023/04/17 04:17:18;;;;;;;;;;;;;;;11.76;57.17;97040.75;4194900;28;5644;-75
2023/04/17 04:19:21;;;;;;;;;;;;;;;11.78;57.10;97033.44;4194054;28;5623;-74
2023/04/17 04:21:24;;;;;;;;;;;;;;;11.78;57.34;97031.63;4194637;28;5663;-75
2023/04/17 04:23:29;;;;;;;;;;;;;;;11.81;57.40;97035.75;4194083;28;5628;-75
2023/04/17 04:25:33;;;;;;;;;;;;;;;11.85;57.45;97039.63;4203301;28;5645;-75
2023/04/17 04:27:36;;;;;;;;;;;;;;;11.87;57.32;97034.94;4187989;28;5658;-75
2023/04/17 04:29:39;;;;;;;;;;;;;;;11.88;57.24;97033.94;4194484;28;5650;-75
2023/04/17 04:31:45;;;;;;;;;;;;;;;11.92;57.29;97048.44;4194596;28;5444;-75
2023/04/17 04:33:53;;;;;;;;;;;;;;;11.92;57.15;97040.50;4194741;28;7155;-75
2023/04/17 04:35:59;;;;;;;;;;;;;;;11.97;57.40;97043.38;4186559;28;5712;-76
2023/04/17 04:38:03;;;;;;;;;;;;;;;11.96;57.42;97039.09;4179102;28;5818;-75
2023/04/17 04:40:09;;;;;;;;;;;;;;;11.98;57.51;97036.22;4182335;28;5860;-77
2023/04/17 04:42:20;;;;;;;;;;;;;;;11.97;57.55;97040.72;4184581;28;5987;-77
2023/04/17 04:44:23;;;;;;;;;;;;;;;12.00;57.50;97036.84;4184338;28;5712;-77
2023/04/17 04:46:26;;;;;;;;;;;;;;;12.00;57.33;97035.03;4185917;28;5716;-75
2023/04/17 04:48:29;;;;;;;;;;;;;;;12.00;57.26;97042.16;4184266;28;5810;-76
2023/04/17 04:50:32;;;;;;;;;;;;;;;12.01;57.31;97049.94;4185197;28;5718;-76
2023/04/17 04:52:35;;;;;;;;;;;;;;;12.03;57.21;97050.56;4182288;28;7150;-75
2023/04/17 04:54:38;;;;;;;;;;;;;;;12.02;57.37;97053.41;4185327;28;5743;-76
2023/04/17 04:56:43;;;;;;;;;;;;;;;12.01;57.45;97052.59;4178480;28;5737;-75
2023/04/17 04:58:47;;;;;;;;;;;;;;;12.05;57.29;97056.47;4181964;28;5712;-76
2023/04/17 05:00:51;;;;;;;;;;;;;;;12.09;57.18;97049.75;4184710;28;5699;-76
2023/04/17 05:02:53;;;;;;;;;;;;;;;12.11;57.41;97047.72;4184325;28;6426;-76
2023/04/17 05:04:57;;;;;;;;;;;;;;;12.11;57.21;97046.91;4183924;28;5786;-77
2023/04/17 05:07:00;;;;;;;;;;;;;;;12.12;57.58;97037.97;4184809;28;5811;-76
2023/04/17 05:09:03;;;;;;;;;;;;;;;12.15;57.54;97043.69;4181507;28;5871;-77
2023/04/17 05:11:06;;;;;;;;;;;;;;;12.14;57.34;97042.03;4184417;28;5708;-76
2023/04/17 05:13:09;;;;;;;;;;;;;;;12.13;57.40;97042.25;4186162;28;5708;-76
2023/04/17 05:15:13;;;;;;;;;;;;;;;12.15;57.37;97038.38;4181018;28;5712;-76
2023/04/17 05:17:16;;;;;;;;;;;;;;;12.17;57.53;97040.81;4178721;28;5813;-77
2023/04/17 05:19:19;;;;;;;;;;;;;;;12.19;57.31;97039.59;4182780;28;5704;-77
2023/04/17 05:21:22;;;;;;;;;;;;;;;12.19;57.20;97036.94;4182962;28;5780;-77
2023/04/17 05:23:25;;;;;;;;;;;;;;;12.21;57.23;97034.91;4185249;28;6573;-76
2023/04/17 05:25:28;;;;;;;;;;;;;;;12.21;57.39;97036.75;4180295;28;5792;-77
2023/04/17 05:27:31;;;;;;;;;;;;;;;12.20;57.43;97035.13;4172531;28;5860;-77
2023/04/17 05:29:36;;;;;;;;;;;;;;;12.23;57.60;97040.88;4177357;28;5705;-77
2023/04/17 05:31:41;;;;;;;;;;;;;;;12.24;57.15;97039.84;4177425;28;5894;-76
2023/04/17 05:33:44;;;;;;;;;;;;;;;12.23;57.26;97040.88;4180669;28;5782;-76
2023/04/17 05:35:48;;;;;;;;;;;;;;;12.27;57.62;97040.47;4182169;28;5728;-75
2023/04/17 05:37:51;;;;;;;;;;;;;;;12.27;57.32;97037.81;4176119;28;5708;-75
2023/04/17 05:39:55;;;;;;;;;;;;;;;12.29;57.42;97041.06;4175697;28;5857;-75
2023/04/17 05:41:57;;;;;;;;;;;;;;;12.30;57.41;97046.19;4178841;28;5730;-76
2023/04/17 05:44:00;;;;;;;;;;;;;;;12.33;57.62;97043.13;4184185;28;5728;-75
2023/04/17 05:46:03;;;;;;;;;;;;;;;12.36;57.37;97040.09;4174288;28;5718;-75
2023/04/17 05:48:07;;;;;;;;;;;;;;;12.39;57.26;97033.56;4178626;28;5832;-76
2023/04/17 05:50:11;;;;;;;;;;;;;;;12.46;57.20;97034.44;4176356;28;5845;-76
2023/04/17 05:52:13;;;;;;;;;;;;;;;12.45;57.19;97032.75;4180079;28;5701;-76
2023/04/17 05:54:16;;;;;;;;;;;;;;;12.40;57.31;97035.22;4184631;28;5799;-75
2023/04/17 05:56:19;;;;;;;;;;;;;;;12.34;57.31;97043.94;4184542;28;5819;-76
2023/04/17 05:58:22;;;;;;;;;;;;;;;12.28;57.56;97032.31;4179604;28;5850;-76
2023/04/17 06:00:26;;;;;;;;;;;;;;;12.31;57.52;97033.75;4180717;28;5874;-76
2023/04/17 06:02:29;;;;;;;;;;;;;;;12.40;57.55;97040.50;4184643;28;5807;-76
2023/04/17 06:04:34;;;;;;;;;;;;;;;12.43;57.28;97032.16;4184814;28;5713;-76
2023/04/17 06:06:37;;;;;;;;;;;;;;;12.45;57.26;97038.06;4169140;28;5800;-76
2023/04/17 06:08:40;;;;;;;;;;;;;;;12.45;57.37;97038.06;4166344;28;5754;-76
2023/04/17 06:10:44;;;;;;;;;;;;;;;12.48;57.36;97040.34;4175576;28;5831;-76
2023/04/17 06:12:47;;;;;;;;;;;;;;;12.57;57.25;97041.81;4176698;28;5939;-75
2023/04/17 06:14:51;;;;;;;;;;;;;;;12.63;57.33;97048.94;4175965;28;5836;-76
2023/04/17 06:16:55;;;;;;;;;;;;;;;12.63;56.98;97046.31;4174742;28;5756;-77
2023/04/17 06:18:58;;;;;;;;;;;;;;;12.63;57.18;97043.66;4184347;28;5802;-76
2023/04/17 06:21:02;;;;;;;;;;;;;;;12.64;57.09;97039.97;4183998;28;5716;-77
2023/04/17 06:23:07;;;;;;;;;;;;;;;12.70;57.27;97049.81;4175926;28;5759;-77
2023/04/17 06:25:10;;;;;;;;;;;;;;;12.75;57.05;97036.75;4183747;28;5848;-77
2023/04/17 06:27:13;;;;;;;;;;;;;;;12.82;56.78;97045.53;4182652;28;5850;-77
2023/04/17 06:29:16;;;;;;;;;;;;;;;12.86;56.84;97050.44;4171745;28;5108;-77
2023/04/17 06:31:19;;;;;;;;;;;;;;;12.89;57.16;97040.22;4183450;28;8813;-77
2023/04/17 06:33:22;;;;;;;;;;;;;;;12.94;56.76;97043.13;4180033;28;5809;-77
2023/04/17 06:35:28;;;;;;;;;;;;;;;12.99;57.06;97042.50;4180042;28;5869;-77
2023/04/17 06:37:32;;;;;;;;;;;;;;;13.01;56.91;97037.78;4191729;28;5214;-77
2023/04/17 06:39:35;;;;;;;;;;;;;;;13.03;56.56;97038.44;4192737;28;6947;-77
2023/04/17 06:41:38;;;;;;;;;;;;;;;13.00;56.83;97044.13;4184139;28;5716;-77
2023/04/17 06:43:41;;;;;;;;;;;;;;;13.00;56.98;97050.25;4184097;28;5706;-77
2023/04/17 06:45:44;;;;;;;;;;;;;;;12.99;56.87;97034.53;4200268;28;5620;-77
2023/04/17 06:47:46;;;;;;;;;;;;;;;13.01;57.03;97033.31;4192501;28;5729;-77
2023/04/17 06:49:49;;;;;;;;;;;;;;;13.05;56.55;97039.03;4199779;28;5647;-77
2023/04/17 06:51:53;;;;;;;;;;;;;;;12.99;56.76;97034.53;4184249;28;5825;-77
2023/04/17 06:53:58;;;;;;;;;;;;;;;12.96;56.88;97034.94;4186402;28;5870;-77
2023/04/17 06:56:00;;;;;;;;;;;;;;;12.91;56.89;97040.88;4191852;28;5639;-76
2023/04/17 06:58:04;;;;;;;;;;;;;;;12.87;56.85;97046.75;4191710;28;5620;-75
2023/04/17 07:00:09;;;;;;;;;;;;;;;12.87;56.68;97033.50;4186553;28;5702;-76
2023/04/17 07:02:12;;;;;;;;;;;;;;;12.88;56.66;97033.28;4192056;28;5635;-77
2023/04/17 07:04:19;;;;;;;;;;;;;;;12.95;56.88;97035.97;4188062;28;5801;-76
2023/04/17 07:06:23;;;;;;;;;;;;;;;13.01;56.49;97037.78;4196981;28;5627;-76
2023/04/17 07:08:25;;;;;;;;;;;;;;;13.05;56.35;97033.75;4186610;28;5745;-77
2023/04/17 07:10:30;;;;;;;;;;;;;;;13.10;56.62;97033.94;4198616;28;5736;-77
2023/04/17 07:12:33;;;;;;;;;;;;;;;13.18;56.53;97036.41;4188636;28;5638;-77
2023/04/17 07:14:37;;;;;;;;;;;;;;;13.30;56.39;97041.94;4202044;28;5746;-77
2023/04/17 07:16:39;;;;;;;;;;;;;;;13.32;55.96;97038.06;4201618;28;5734;-76
2023/04/17 07:18:42;;;;;;;;;;;;;;;13.29;56.22;97030.50;4202775;28;5627;-77
2023/04/17 07:20:48;;;;;;;;;;;;;;;13.32;56.07;97019.47;4202991;28;5711;-77
2023/04/17 07:22:51;;;;;;;;;;;;;;;13.32;56.25;97035.41;4201545;28;5624;-76
2023/04/17 07:24:54;;;;;;;;;;;;;;;13.32;56.00;97023.97;4194754;28;5631;-76
2023/04/17 07:26:58;;;;;;;;;;;;;;;13.35;56.06;97036.81;4208401;28;5625;-77
2023/04/17 07:29:01;;;;;;;;;;;;;;;13.29;55.77;97022.56;4205217;28;6314;-76
2023/04/17 07:31:07;;;;;;;;;;;;;;;13.26;55.47;97024.81;4199683;28;5815;-76
2023/04/17 07:33:10;;;;;;;;;;;;;;;13.23;55.74;97039.28;4199117;28;5652;-76
2023/04/17 07:35:13;;;;;;;;;;;;;;;13.20;55.68;97029.06;4202628;28;5714;-77
2023/04/17 07:37:16;;;;;;;;;;;;;;;13.25;55.48;97029.28;4206421;28;5918;-76
2023/04/17 07:39:19;;;;;;;;;;;;;;;13.30;55.31;97026.84;4190461;28;5842;-77
2023/04/17 07:41:22;;;;;;;;;;;;;;;13.34;55.27;97022.75;4197290;28;5802;-75
2023/04/17 07:43:27;;;;;;;;;;;;;;;13.37;55.32;97014.38;4200153;28;5843;-77
2023/04/17 07:45:30;;;;;;;;;;;;;;;13.42;55.29;97024.38;4193235;28;5715;-77
2023/04/17 07:47:33;;;;;;;;;;;;;;;13.46;55.03;97008.84;4186254;28;5795;-77
2023/04/17 07:49:38;;;;;;;;;;;;;;;13.48;54.76;97006.78;4197389;28;5712;-76
2023/04/17 07:51:41;;;;;;;;;;;;;;;13.40;54.54;97019.28;4194227;28;5838;-77
2023/04/17 07:53:44;;;;;;;;;;;;;;;13.34;55.00;97025.38;4194928;28;5717;-76
2023/04/17 07:55:47;;;;;;;;;;;;;;;13.31;54.58;97015.19;4199091;28;5707;-76
2023/04/17 07:57:51;;;;;;;;;;;;;;;13.30;54.81;97020.72;4193251;28;6424;-76
2023/04/17 07:59:56;;;;;;;;;;;;;;;13.23;54.58;97026.00;4204224;28;6499;-76
2023/04/17 08:01:59;;;;;;;;;;;;;;;13.17;54.67;97016.19;4198377;28;5635;-77
2023/04/17 08:04:02;;;;;;;;;;;;;;;13.18;54.65;97017.81;4190177;28;5712;-76
2023/04/17 08:06:06;;;;;;;;;;;;;;;13.19;54.60;97019.47;4190722;28;5712;-76
2023/04/17 08:08:09;;;;;;;;;;;;;;;13.24;54.79;97019.66;4197834;28;5901;-76
2023/04/17 08:10:12;;;;;;;;;;;;;;;13.26;54.53;97015.00;4195531;28;5611;-76
2023/04/17 08:12:15;;;;;;;;;;;;;;;13.28;54.73;97005.00;4198625;28;5804;-76
2023/04/17 08:14:19;;;;;;;;;;;;;;;13.29;54.64;97011.94;4192092;28;5774;-76
2023/04/17 08:16:23;;;;;;;;;;;;;;;13.35;54.59;97000.47;4198557;28;5274;-76
2023/04/17 08:18:26;;;;;;;;;;;;;;;13.40;54.42;96998.03;4197107;28;7842;-76
2023/04/17 08:20:29;;;;;;;;;;;;;;;13.40;54.01;97003.34;4194106;28;5647;-77
2023/04/17 08:22:32;;;;;;;;;;;;;;;13.38;54.25;97007.22;4193753;28;5896;-76
2023/04/17 08:24:35;;;;;;;;;;;;;;;13.33;54.05;97007.84;4199863;28;5774;-77
2023/04/17 08:26:37;;;;;;;;;;;;;;;13.34;53.85;97003.34;4192151;28;5829;-76
2023/04/17 08:28:40;;;;;;;;;;;;;;;13.35;54.19;97000.47;4193201;28;5786;-77
2023/04/17 08:30:43;;;;;;;;;;;;;;;13.37;54.06;97014.38;4188639;28;5745;-78
2023/04/17 08:32:50;;;;;;;;;;;;;;;13.38;53.72;97008.06;4187465;28;5733;-73
2023/04/17 08:34:54;;;;;;;;;;;;;;;13.42;53.74;97007.63;4193090;28;5862;-71
2023/04/17 08:36:57;;;;;;;;;;;;;;;13.47;53.63;97002.50;4186995;28;5642;-72
2023/04/17 08:38:59;;;;;;;;;;;;;;;13.52;53.49;97011.50;4199148;28;5750;-71
2023/04/17 08:41:04;;;;;;;;;;;;;;;13.56;53.58;97012.72;4206055;28;5730;-71
2023/04/17 08:43:14;;;;;;;;;;;;;;;13.53;53.62;97007.00;4195469;28;5661;-72
2023/04/17 08:45:18;;;;;;;;;;;;;;;13.58;53.50;97005.34;4194756;28;5709;-72
2023/04/17 08:47:21;;;;;;;;;;;;;;;13.62;53.30;96998.63;4203194;28;5802;-72
2023/04/17 08:49:29;;;;;;;;;;;;;;;13.61;53.27;97002.31;4203988;28;5620;-72
2023/04/17 08:51:32;;;;;;;;;;;;;;;13.62;53.51;97003.13;4198149;28;5690;-71
2023/04/17 08:53:34;;;;;;;;;;;;;;;13.65;53.21;96992.06;4194630;28;5089;-72
2023/04/17 08:55:37;;;;;;;;;;;;;;;13.69;53.28;96993.28;4191291;28;5940;-72
2023/04/17 08:58:02;;;;;;;;;;;;;;;13.75;53.24;96994.31;4191923;28;5879;-72
2023/04/17 09:00:10;;;;;;;;;;;;;;;13.77;53.04;96984.28;4191161;28;5900;-72
2023/04/17 09:02:14;;;;;;;;;;;;;;;13.77;53.09;96986.94;4190618;28;5743;-72
2023/04/17 09:04:34;;;;;;;;;;;;;;;13.73;53.09;96977.75;4196716;28;6102;-71
2023/04/17 09:06:51;;;;;;;;;;;;;;;13.73;53.12;96975.09;4189380;28;5627;-72
2023/04/17 09:08:57;;;;;;;;;;;;;;;13.75;53.11;96979.16;4195206;28;5612;-70
2023/04/17 09:11:00;;;;;;;;;;;;;;;13.75;52.98;96970.38;4186960;28;5733;-71
2023/04/17 09:13:03;;;;;;;;;;;;;;;13.81;52.90;96975.66;4188718;28;5807;-71
2023/04/17 09:15:15;;;;;;;;;;;;;;;13.89;52.79;96977.28;4188532;28;5728;-71
2023/04/17 09:17:20;;;;;;;;;;;;;;;13.96;52.72;96976.25;4186835;28;5709;-72
2023/04/17 09:19:22;;;;;;;;;;;;;;;14.04;52.24;96977.84;4191252;28;5733;-71
2023/04/17 09:21:27;;;;;;;;;;;;;;;14.15;52.47;96971.88;4187020;28;5733;-71
2023/04/17 09:23:31;;;;;;;;;;;;;;;14.30;52.17;96973.47;4188254;28;5647;-71
2023/04/17 09:25:34;;;;;;;;;;;;;;;14.41;52.16;96970.94;4189962;28;5740;-72
2023/04/17 09:27:37;;;;;;;;;;;;;;;14.51;51.72;96981.97;4184064;28;5769;-72
2023/04/17 09:29:55;;;;;;;;;;;;;;;14.59;51.66;96972.09;4185800;28;5746;-72
2023/04/17 09:32:14;;;;;;;;;;;;;;;14.63;51.79;96968.00;4194554;28;5528;-71
2023/04/17 09:34:17;;;;;;;;;;;;;;;14.71;51.50;96973.03;4203766;28;6554;-71
2023/04/17 09:36:21;;;;;;;;;;;;;;;14.73;51.63;96982.47;4186877;28;5752;-71
2023/04/17 09:38:39;;;;;;;;;;;;;;;14.76;51.29;96984.69;4193817;28;5632;-71
2023/04/17 09:40:44;;;;;;;;;;;;;;;14.75;51.46;96971.59;4199538;28;5797;-71
2023/04/17 09:42:58;;;;;;;;;;;;;;;14.81;51.15;96970.72;4190909;28;5682;-71
2023/04/17 09:45:18;;;;;;;;;;;;;;;14.80;51.17;96985.06;4199153;28;5711;-71
2023/04/17 09:47:22;;;;;;;;;;;;;;;14.75;50.93;96969.75;4192914;28;5710;-70
2023/04/17 09:49:32;;;;;;;;;;;;;;;14.83;50.95;96971.31;4199204;28;5751;-71
2023/04/17 09:51:36;;;;;;;;;;;;;;;14.83;50.95;96971.31;4186319;28;5729;-71
2023/04/17 09:53:41;;;;;;;;;;;;;;;14.84;50.94;96970.31;4180174;28;5690;-71
2023/04/17 09:55:45;;;;;;;;;;;;;;;14.92;50.86;96963.88;4185504;28;5690;-70
2023/04/17 09:57:50;;;;;;;;;;;;;;;14.94;50.85;96959.97;4174614;28;5651;-71
2023/04/17 09:59:58;;;;;;;;;;;;;;;14.93;50.86;96954.88;4168420;28;5658;-71
2023/04/17 10:02:01;;;;;;;;;;;;;;;14.90;50.70;96956.13;4177186;28;5702;-71
2023/04/17 10:04:07;;;;;;;;;;;;;;;14.88;50.65;96955.53;4182180;28;5742;-71
2023/04/17 10:06:10;;;;;;;;;;;;;;;14.89;50.64;96970.47;4180723;28;5799;-71
2023/04/17 10:08:13;;;;;;;;;;;;;;;14.82;50.87;96951.06;4177671;28;6688;-71
2023/04/17 10:10:24;;;;;;;;;;;;;;;14.83;50.76;96944.69;4180512;28;6516;-71
2023/04/17 10:12:27;;;;;;;;;;;;;;;14.83;50.80;96952.69;4181695;28;5783;-71
2023/04/17 10:14:32;;;;;;;;;;;;;;;14.85;50.55;96940.81;4176375;28;5917;-71
2023/04/17 10:16:36;;;;;;;;;;;;;;;14.83;50.51;96936.72;4176013;28;5687;-72
2023/04/17 10:18:39;;;;;;;;;;;;;;;14.83;50.33;96931.41;4185126;28;5741;-71
2023/04/17 10:20:43;;;;;;;;;;;;;;;14.81;50.42;96936.94;4174778;28;5654;-71
2023/04/17 10:22:53;;;;;;;;;;;;;;;14.82;50.26;96940.41;4172601;28;5757;-71
2023/04/17 10:25:19;;;;;;;;;;;;;;;14.80;50.27;96926.50;4186019;28;5660;-72
2023/04/17 10:27:45;;;;;;;;;;;;;;;14.80;50.16;96932.66;4194237;28;5638;-72
2023/04/17 10:29:54;;;;;;;;;;;;;;;14.78;49.92;96941.88;4182577;28;5658;-70
2023/04/17 10:32:27;;;;;;;;;;;;;;;14.75;50.20;96937.81;4178192;28;5800;-70
2023/04/17 10:34:37;;;;;;;;;;;;;;;14.75;50.24;96919.19;4174523;28;6652;-71
2023/04/17 10:36:49;;;;;;;;;;;;;;;14.74;50.21;96928.19;4186897;28;6597;-71
2023/04/17 10:38:52;;;;;;;;;;;;;;;14.74;50.13;96933.53;4181848;28;6475;-71
2023/04/17 10:40:55;;;;;;;;;;;;;;;14.77;49.93;96934.94;4167850;28;5776;-70
2023/04/17 10:43:11;;;;;;;;;;;;;;;14.77;49.96;96929.63;4185578;28;5632;-70
2023/04/17 10:45:19;;;;;;;;;;;;;;;14.77;49.68;96942.91;4172478;28;5844;-70
2023/04/17 10:47:22;;;;;;;;;;;;;;;14.78;49.80;96931.25;4184648;28;5813;-70
2023/04/17 10:49:25;;;;;;;;;;;;;;;14.78;49.59;96931.25;4185609;28;6300;-70
2023/04/17 10:51:41;;;;;;;;;;;;;;;14.81;49.71;96931.63;4199878;28;5835;-70
2023/04/17 10:53:44;;;;;;;;;;;;;;;14.82;49.54;96924.44;4182215;28;5661;-72
2023/04/17 10:55:50;;;;;;;;;;;;;;;14.85;49.87;96938.16;4169622;28;5645;-72
2023/04/17 10:57:55;;;;;;;;;;;;;;;14.90;49.71;96932.16;4192323;28;5642;-72